Time;durP1;ratioP1;P1;durP2;ratioP2;P2;SDS_P1;SDS_P2;PMS_P1;PMS_P2;Temp;Humidity;BMP_temperature;BMP_pressure;BME280_temperature;BME280_humidity;BME280_pressure;Samples;Min_cycle;Max_cycle;Signal;HPM_P1;HPM_P2
2021/12/08 00:00:25;;;;;;;13.03;9.23;;;;;;;11.09;100.00;99821.98;1686858;84;20980;-59
2021/12/08 00:02:52;;;;;;;14.67;9.90;;;;;;;11.14;100.00;99824.03;1685623;84;21384;-61
2021/12/08 00:05:20;;;;;;;12.47;9.33;;;;;;;10.77;100.00;99819.59;1668736;84;21250;-59
2021/12/08 00:07:47;;;;;;;11.43;8.27;;;;;;;11.01;100.00;99811.73;1668816;84;21152;-59
2021/12/08 00:10:39;;;;;;;11.40;9.25;;;;;;;11.21;100.00;99806.56;1667805;84;21193;-59
2021/12/08 00:13:07;;;;;;;12.30;9.48;;;;;;;11.33;100.00;99806.81;1640597;84;21050;-59
2021/12/08 00:15:41;;;;;;;13.23;9.80;;;;;;;11.36;100.00;99808.49;1610270;87;21103;-74
2021/12/08 00:18:16;;;;;;;12.33;8.33;;;;;;;11.13;100.00;99803.64;1651523;85;21723;-62
2021/12/08 00:20:46;;;;;;;11.53;8.73;;;;;;;11.21;100.00;99796.13;1661815;85;21248;-61
2021/12/08 00:23:13;;;;;;;12.57;9.20;;;;;;;11.16;100.00;99786.80;1661555;85;21367;-61
2021/12/08 00:25:40;;;;;;;13.80;9.30;;;;;;;11.25;100.00;99791.31;1660424;84;21321;-61
2021/12/08 00:28:07;;;;;;;11.10;8.93;;;;;;;11.33;100.00;99788.03;1667282;84;21432;-60
2021/12/08 00:30:37;;;;;;;11.40;8.57;;;;;;;11.41;100.00;99782.63;1668506;84;21140;-61
2021/12/08 00:33:04;;;;;;;10.87;8.07;;;;;;;11.35;100.00;99790.44;1657894;84;21355;-74
2021/12/08 00:35:32;;;;;;;12.83;8.73;;;;;;;11.63;100.00;99786.32;1667839;84;21690;-67
2021/12/08 00:38:00;;;;;;;11.63;8.90;;;;;;;12.14;100.00;99778.67;1668366;84;21423;-60
2021/12/08 00:40:28;;;;;;;12.37;8.87;;;;;;;11.48;100.00;99783.11;1668749;84;21091;-62
2021/12/08 00:42:56;;;;;;;11.20;8.63;;;;;;;11.75;100.00;99777.41;1669025;84;21386;-62
2021/12/08 00:45:24;;;;;;;12.90;9.63;;;;;;;10.96;100.00;99791.47;1667775;84;21255;-61
2021/12/08 00:47:51;;;;;;;12.93;9.33;;;;;;;10.78;100.00;99778.17;1668367;84;21765;-61
2021/12/08 00:50:21;;;;;;;11.77;9.80;;;;;;;10.69;100.00;99782.77;1666782;84;21927;-61
2021/12/08 00:52:49;;;;;;;12.07;9.77;;;;;;;10.70;100.00;99786.17;1668967;84;21206;-60
2021/12/08 00:55:16;;;;;;;11.80;9.07;;;;;;;11.92;100.00;99768.95;1668172;84;21139;-74
2021/12/08 00:57:44;;;;;;;11.10;8.97;;;;;;;12.12;100.00;99777.25;1668334;84;21225;-61
2021/12/08 01:00:31;;;;;;;10.73;8.00;;;;;;;12.28;100.00;99766.38;1668209;84;21181;-61
2021/12/08 01:02:58;;;;;;;11.40;10.20;;;;;;;12.29;100.00;99766.67;1668329;84;21210;-60
2021/12/08 01:05:30;;;;;;;11.33;9.70;;;;;;;12.05;100.00;99779.11;1657059;86;22106;-61
2021/12/08 01:07:57;;;;;;;12.90;9.85;;;;;;;12.32;100.00;99778.53;1677308;85;21390;-59
2021/12/08 01:10:27;;;;;;;11.97;9.27;;;;;;;12.46;100.00;99764.89;1676840;85;21003;-59
2021/12/08 01:12:54;;;;;;;10.40;8.87;;;;;;;12.37;100.00;99771.66;1676346;85;21238;-58
2021/12/08 01:15:24;;;;;;;11.43;9.00;;;;;;;12.38;100.00;99768.55;1676461;85;21269;-70
2021/12/08 01:17:51;;;;;;;11.17;8.77;;;;;;;12.38;100.00;99764.63;1676820;85;21472;-59
2021/12/08 01:20:18;;;;;;;10.77;9.27;;;;;;;12.39;100.00;99762.33;1677105;85;21322;-58
2021/12/08 01:22:45;;;;;;;11.47;9.80;;;;;;;12.49;100.00;99763.17;1676419;84;21224;-73
2021/12/08 01:25:12;;;;;;;11.27;9.60;;;;;;;12.73;100.00;99759.87;1677269;85;21324;-66
2021/12/08 01:27:40;;;;;;;11.93;9.23;;;;;;;12.77;100.00;99762.36;1676469;85;21755;-62
2021/12/08 01:30:09;;;;;;;12.50;9.93;;;;;;;12.97;100.00;99762.24;1677062;85;21735;-59
2021/12/08 01:32:36;;;;;;;11.53;9.60;;;;;;;13.03;100.00;99759.27;1677106;85;21744;-60
2021/12/08 01:35:04;;;;;;;12.27;9.53;;;;;;;13.10;100.00;99766.58;1680081;84;21622;-72
2021/12/08 01:37:32;;;;;;;11.30;8.93;;;;;;;13.17;100.00;99754.77;1691622;84;21393;-62
2021/12/08 01:40:00;;;;;;;12.60;9.47;;;;;;;13.13;100.00;99750.46;1691394;84;21298;-61
2021/12/08 01:42:33;;;;;;;10.57;8.37;;;;;;;13.14;100.00;99761.22;1691993;84;21312;-62
2021/12/08 01:45:59;;;;;;;12.07;9.53;;;;;;;13.22;100.00;99757.06;1690240;84;21215;-59
2021/12/08 01:47:37;;;;;;;12.17;10.17;;;;;;;13.46;100.00;99755.48;1668147;84;21032;-59
2021/12/08 01:50:06;;;;;;;11.33;9.63;;;;;;;13.69;100.00;99749.65;1680922;84;21832;-59
2021/12/08 01:52:36;;;;;;;10.20;8.53;;;;;;;13.75;100.00;99748.80;1690832;84;21261;-72
2021/12/08 01:55:05;;;;;;;13.13;9.83;;;;;;;13.95;100.00;99746.49;1690085;83;21332;-61
2021/12/08 01:57:32;;;;;;;11.47;9.87;;;;;;;13.96;100.00;99738.91;1686866;83;21569;-60
2021/12/08 01:59:59;;;;;;;11.37;9.50;;;;;;;14.00;100.00;99740.08;1689701;83;21179;-61
2021/12/08 02:02:26;;;;;;;10.53;9.33;;;;;;;14.06;100.00;99736.59;1690011;84;21172;-62
2021/12/08 02:04:54;;;;;;;12.03;8.50;;;;;;;13.81;100.00;99733.51;1688790;84;21584;-60
2021/12/08 02:07:21;;;;;;;11.10;9.47;;;;;;;13.84;100.00;99724.42;1696326;82;21742;-60
2021/12/08 02:09:49;;;;;;;13.40;10.17;;;;;;;14.15;100.00;99730.55;1690392;82;23131;-59
2021/12/08 02:12:18;;;;;;;13.10;9.47;;;;;;;14.45;100.00;99724.83;1688099;84;22224;-71
2021/12/08 02:14:46;;;;;;;10.47;9.27;;;;;;;14.64;100.00;99730.88;1687081;84;21314;-61
2021/12/08 02:17:16;;;;;;;9.70;8.70;;;;;;;14.16;100.00;99732.94;1688138;84;21113;-62
2021/12/08 02:19:43;;;;;;;11.00;9.07;;;;;;;14.47;100.00;99722.80;1688417;84;21356;-63
2021/12/08 02:22:10;;;;;;;12.80;10.27;;;;;;;14.33;100.00;99726.60;1688966;84;21167;-68
2021/12/08 02:24:39;;;;;;;11.30;9.27;;;;;;;14.28;100.00;99712.85;1686955;84;21120;-59
2021/12/08 02:27:06;;;;;;;13.70;9.33;;;;;;;14.07;100.00;99721.95;1688300;84;21132;-59
2021/12/08 02:29:40;;;;;;;10.03;8.93;;;;;;;14.19;100.00;99749.54;1688107;84;21084;-59
2021/12/08 02:32:14;;;;;;;10.47;9.20;;;;;;;14.32;100.00;99714.52;1677196;84;21394;-59
2021/12/08 02:48:20;;;;;;;10.80;9.63;;;;;;;14.69;100.00;99707.39;1680488;84;21759;-59
2021/12/08 02:50:48;;;;;;;11.33;9.13;;;;;;;15.41;95.85;99695.48;1688140;84;21150;-58
2021/12/08 02:53:15;;;;;;;15.30;10.73;;;;;;;15.36;94.97;99695.89;1687002;84;21410;-59
2021/12/08 02:55:42;;;;;;;13.00;10.87;;;;;;;13.93;100.00;99700.04;1688043;84;21226;-59
2021/12/08 02:58:11;;;;;;;11.73;9.60;;;;;;;13.57;100.00;99693.77;1688393;84;21260;-60
2021/12/08 03:00:49;;;;;;;12.40;8.93;;;;;;;13.63;100.00;99691.58;1687838;83;21248;-58
2021/12/08 03:03:16;;;;;;;12.47;9.50;;;;;;;13.49;100.00;99704.52;1686986;84;21196;-62
2021/12/08 03:05:43;;;;;;;10.17;8.93;;;;;;;13.69;100.00;99705.64;1688267;84;21168;-59
2021/12/08 03:08:11;;;;;;;11.83;9.33;;;;;;;13.56;100.00;99716.53;1688294;84;21339;-60
2021/12/08 03:10:43;;;;;;;11.80;8.37;;;;;;;13.32;100.00;99699.02;1688355;84;21241;-72
2021/12/08 03:13:11;;;;;;;11.00;8.63;;;;;;;13.02;100.00;99707.97;1688185;84;21316;-58
2021/12/08 03:15:39;;;;;;;10.80;8.10;;;;;;;13.31;100.00;99700.03;1688322;84;21249;-60
2021/12/08 03:18:06;;;;;;;13.50;9.60;;;;;;;13.60;100.00;99695.95;1687883;84;21070;-60
2021/12/08 03:20:42;;;;;;;11.77;9.50;;;;;;;13.57;100.00;99687.22;1688587;84;21078;-59
2021/12/08 03:23:12;;;;;;;12.63;8.30;;;;;;;13.33;100.00;99685.73;1678426;84;21419;-59
2021/12/08 03:25:42;;;;;;;11.93;9.77;;;;;;;13.12;100.00;99692.61;1688225;84;21322;-59
2021/12/08 03:28:18;;;;;;;13.33;10.87;;;;;;;13.13;100.00;99703.36;1656712;86;21569;-59
2021/12/08 03:30:51;;;;;;;11.80;9.67;;;;;;;13.21;100.00;99702.30;1656363;85;21736;-71
2021/12/08 03:33:06;;;;;;;10.53;9.43;;;;;;;13.35;100.00;99721.64;1654287;86;21811;-60
2021/12/08 03:35:36;;;;;;;10.57;7.80;;;;;;;13.17;100.00;99701.91;1627574;88;21388;-60
2021/12/08 03:38:03;;;;;;;13.87;10.23;;;;;;;13.09;100.00;99707.42;1677216;84;21243;-58
2021/12/08 03:40:32;;;;;;;12.20;9.57;;;;;;;13.03;100.00;99704.33;1688178;84;21067;-66
2021/12/08 03:42:59;;;;;;;12.97;10.07;;;;;;;13.32;100.00;99701.12;1686812;83;21340;-68
2021/12/08 03:45:34;;;;;;;11.27;8.90;;;;;;;13.25;100.00;99708.73;1687792;84;21454;-58
2021/12/08 03:48:08;;;;;;;13.17;10.87;;;;;;;13.08;100.00;99697.97;1688110;84;21620;-59
2021/12/08 03:50:38;;;;;;;17.73;10.93;;;;;;;13.44;100.00;99701.73;1687239;84;21243;-60
2021/12/08 03:53:07;;;;;;;15.15;10.32;;;;;;;13.09;100.00;99701.67;1677525;84;21173;-64
2021/12/08 03:55:35;;;;;;;11.67;8.90;;;;;;;13.03;100.00;99703.02;1687869;84;20999;-62
2021/12/08 03:58:02;;;;;;;12.27;9.33;;;;;;;13.17;100.00;99707.15;1677108;84;22070;-59
2021/12/08 04:00:30;;;;;;;9.60;7.57;;;;;;;13.39;100.00;99710.23;1687743;78;22952;-59
2021/12/08 04:02:59;;;;;;;12.33;7.67;;;;;;;13.30;100.00;99704.47;1646337;85;21574;-60
2021/12/08 04:06:25;;;;;;;10.23;7.10;;;;;;;13.07;100.00;99703.72;1646332;85;21737;-59
2021/12/08 04:08:02;;;;;;;9.40;6.33;;;;;;;12.27;100.00;99714.30;1634997;87;21425;-71
2021/12/08 04:10:24;;;;;;;10.00;6.90;;;;;;;12.24;100.00;99705.59;1644419;85;21374;-59
2021/12/08 04:12:54;;;;;;;13.37;8.67;;;;;;;12.25;100.00;99700.15;1644555;87;21222;-70
2021/12/08 04:15:23;;;;;;;11.37;8.10;;;;;;;11.91;100.00;99711.72;1644935;87;21375;-59
2021/12/08 04:17:52;;;;;;;10.70;7.90;;;;;;;12.09;100.00;99704.54;1642625;87;21365;-59
2021/12/08 04:20:27;;;;;;;12.70;8.97;;;;;;;12.03;100.00;99704.05;1644316;87;21891;-61
2021/12/08 04:22:55;;;;;;;13.87;9.83;;;;;;;12.00;100.00;99710.98;1644172;85;21332;-59
2021/12/08 04:25:29;;;;;;;13.40;9.87;;;;;;;12.52;100.00;99707.87;1645037;87;21386;-58
2021/12/08 04:27:58;;;;;;;13.20;10.00;;;;;;;12.69;100.00;99706.38;1644843;87;21282;-60
2021/12/08 04:30:39;;;;;;;13.67;9.83;;;;;;;12.67;100.00;99703.16;1644066;87;21327;-61
2021/12/08 04:33:07;;;;;;;12.00;8.85;;;;;;;12.63;100.00;99697.55;1639477;85;21300;-61
2021/12/08 04:35:34;;;;;;;13.87;10.87;;;;;;;12.23;100.00;99694.31;1644770;87;21019;-62
2021/12/08 04:38:06;;;;;;;12.63;9.70;;;;;;;12.32;100.00;99704.84;1644301;87;21277;-61
2021/12/08 04:41:04;;;;;;;11.17;8.83;;;;;;;12.34;100.00;99704.12;1643526;85;21179;-62
2021/12/08 04:43:19;;;;;;;9.67;7.93;;;;;;;12.18;100.00;99708.00;1667717;83;21297;-61
2021/12/08 04:46:04;;;;;;;14.03;9.03;;;;;;;12.19;100.00;99695.73;1656269;85;21220;-63
2021/12/08 04:48:57;;;;;;;10.07;7.17;;;;;;;12.34;100.00;99723.72;1643442;85;21341;-61
2021/12/08 04:51:28;;;;;;;11.50;8.57;;;;;;;12.37;100.00;99701.60;1643981;85;21806;-68
2021/12/08 05:10:14;;;;;;;;;;;;;;;12.52;100.00;99682.53;1659075;85;21159;-64
2021/12/08 05:12:39;;;;;;;13.43;9.70;;;;;;;12.52;100.00;99683.03;1657394;85;20109;-60
2021/12/08 05:15:18;;;;;;;11.23;8.87;;;;;;;12.57;100.00;99693.14;1662398;85;21073;-62
2021/12/08 05:17:50;;;;;;;11.43;9.73;;;;;;;12.48;100.00;99695.72;1682827;83;21258;-63
2021/12/08 05:20:26;;;;;;;12.40;8.47;;;;;;;12.39;100.00;99691.25;1682695;83;21671;-60
2021/12/08 05:22:57;;;;;;;12.53;9.83;;;;;;;12.28;100.00;99699.74;1683631;83;21253;-65
2021/12/08 05:25:27;;;;;;;11.08;8.78;;;;;;;12.17;100.00;99701.69;1676657;83;21206;-61
2021/12/08 05:27:57;;;;;;;11.03;8.47;;;;;;;11.98;100.00;99703.87;1678467;84;21003;-63
2021/12/08 05:30:36;;;;;;;11.57;8.30;;;;;;;11.95;100.00;99700.36;1680152;84;21266;-60
2021/12/08 05:33:03;;;;;;;13.27;9.90;;;;;;;12.13;100.00;99693.97;1668849;85;21155;-60
2021/12/08 05:35:30;;;;;;;13.43;8.80;;;;;;;12.00;100.00;99703.14;1679338;84;21324;-68
2021/12/08 05:37:57;;;;;;;12.63;10.03;;;;;;;12.13;100.00;99694.77;1679748;84;22808;-60
2021/12/08 05:40:36;;;;;;;13.90;10.60;;;;;;;12.14;100.00;99702.09;1646414;86;21860;-61
2021/12/08 05:43:04;;;;;;;12.50;9.13;;;;;;;12.17;100.00;99700.39;1618852;88;21073;-68
2021/12/08 05:45:31;;;;;;;13.90;10.77;;;;;;;11.98;100.00;99704.67;1680079;84;22540;-61
2021/12/08 05:47:58;;;;;;;11.57;8.83;;;;;;;12.09;100.00;99705.84;1648128;86;21205;-62
2021/12/08 05:50:39;;;;;;;11.40;9.03;;;;;;;12.24;100.00;99715.53;1647901;86;21014;-62
2021/12/08 05:53:06;;;;;;;15.88;11.45;;;;;;;11.77;100.00;99704.37;1636546;86;21294;-68
2021/12/08 05:55:34;;;;;;;18.07;12.67;;;;;;;11.62;100.00;99697.27;1628248;88;21019;-60
2021/12/08 05:58:01;;;;;;;15.97;13.40;;;;;;;11.76;100.00;99696.75;1679740;84;21221;-60
2021/12/08 06:00:40;;;;;;;17.83;13.00;;;;;;;11.60;100.00;99689.66;1647340;86;21320;-61
2021/12/08 06:03:07;;;;;;;13.57;9.60;;;;;;;11.38;100.00;99696.10;1623037;88;21297;-66
2021/12/08 06:05:35;;;;;;;14.00;9.67;;;;;;;11.42;100.00;99709.84;1655784;85;21368;-62
2021/12/08 06:08:02;;;;;;;12.53;9.10;;;;;;;11.41;100.00;99697.80;1651861;86;21178;-60
2021/12/08 06:10:34;;;;;;;12.40;8.63;;;;;;;11.30;100.00;99707.55;1687245;84;21263;-62
2021/12/08 06:13:01;;;;;;;10.95;7.67;;;;;;;11.66;100.00;99714.13;1686237;84;21225;-68
2021/12/08 06:15:29;;;;;;;11.40;8.77;;;;;;;11.80;100.00;99706.58;1687598;83;20964;-62
2021/12/08 06:17:57;;;;;;;12.63;9.50;;;;;;;12.17;100.00;99701.69;1686122;84;21068;-61
2021/12/08 06:20:24;;;;;;;13.97;10.10;;;;;;;12.21;100.00;99693.73;1687574;84;21206;-62
2021/12/08 06:22:54;;;;;;;13.07;10.27;;;;;;;12.31;100.00;99674.50;1652519;86;21309;-68
2021/12/08 06:25:22;;;;;;;15.17;10.80;;;;;;;12.24;100.00;99671.63;1621636;88;21180;-62
2021/12/08 06:27:49;;;;;;;16.43;12.47;;;;;;;12.36;100.00;99673.87;1653765;85;21321;-62
2021/12/08 06:30:22;;;;;;;15.53;11.70;;;;;;;12.55;100.00;99670.86;1651810;86;21414;-61
2021/12/08 06:32:49;;;;;;;15.93;11.40;;;;;;;12.57;100.00;99655.75;1621287;88;21273;-69
2021/12/08 06:35:21;;;;;;;18.40;14.47;;;;;;;12.51;100.00;99680.13;1651288;86;21069;-63
2021/12/08 06:37:49;;;;;;;14.40;12.47;;;;;;;12.54;100.00;99681.00;1623656;88;21791;-62
2021/12/08 06:40:24;;;;;;;18.53;12.73;;;;;;;12.38;100.00;99679.67;1651839;86;21212;-62
2021/12/08 06:42:54;;;;;;;21.07;14.13;;;;;;;12.55;100.00;99676.09;1622878;88;21348;-67
2021/12/08 06:45:26;;;;;;;18.87;13.90;;;;;;;12.65;100.00;99675.10;1651723;86;21312;-61
2021/12/08 06:47:53;;;;;;;20.80;13.57;;;;;;;12.66;100.00;99681.45;1623736;88;21818;-60
2021/12/08 06:50:34;;;;;;;19.20;14.20;;;;;;;12.70;100.00;99665.34;1651620;86;21268;-61
2021/12/08 06:53:01;;;;;;;17.07;12.27;;;;;;;12.85;100.00;99675.00;1622939;88;21343;-61
2021/12/08 06:55:42;;;;;;;14.27;12.20;;;;;;;12.73;100.00;99671.43;1652024;86;21720;-60
2021/12/08 06:58:14;;;;;;;18.05;14.60;;;;;;;12.68;100.00;99677.30;1623268;88;21294;-61
2021/12/08 07:01:11;;;;;;;17.13;12.80;;;;;;;13.02;100.00;99662.98;1651058;86;22380;-61
2021/12/08 07:03:38;;;;;;;17.33;12.77;;;;;;;13.04;100.00;99658.86;1626006;87;21316;-62
2021/12/08 07:08:37;;;;;;;14.37;10.90;;;;;;;12.94;100.00;99658.02;1632725;87;21360;-63
2021/12/08 07:11:04;;;;;;;17.00;12.98;;;;;;;13.21;100.00;99662.52;1637087;86;21254;-64
2021/12/08 07:13:32;;;;;;;18.10;12.60;;;;;;;13.18;100.00;99673.92;1627804;88;21253;-61
2021/12/08 07:16:13;;;;;;;16.63;11.73;;;;;;;13.22;100.00;99671.17;1678578;84;21204;-77
2021/12/08 07:18:52;;;;;;;13.95;10.25;;;;;;;13.29;100.00;99667.52;1680002;84;21257;-64
2021/12/08 07:21:14;;;;;;;13.00;10.87;;;;;;;13.19;100.00;99665.08;1678790;84;20980;-62
2021/12/08 07:23:55;;;;;;;11.07;9.80;;;;;;;13.18;100.00;99665.56;1647368;86;21320;-78
2021/12/08 07:26:26;;;;;;;12.20;9.70;;;;;;;13.38;100.00;99668.86;1646994;86;22623;-62
2021/12/08 07:28:54;;;;;;;13.90;12.18;;;;;;;13.51;100.00;99671.05;1647772;86;21210;-68
2021/12/08 07:31:34;;;;;;;18.37;13.47;;;;;;;13.57;100.00;99668.89;1628007;88;21131;-78
2021/12/08 07:34:06;;;;;;;17.97;13.90;;;;;;;13.83;100.00;99683.02;1627474;88;21407;-64
2021/12/08 07:36:39;;;;;;;14.15;12.58;;;;;;;13.95;100.00;99664.75;1679986;84;21175;-61
2021/12/08 07:39:10;;;;;;;21.10;15.10;;;;;;;13.88;100.00;99679.22;1680315;84;21155;-72
2021/12/08 07:41:40;;;;;;;19.35;14.18;;;;;;;13.83;100.00;99674.36;1680056;83;21748;-65
2021/12/08 07:44:10;;;;;;;24.43;16.43;;;;;;;13.95;100.00;99676.54;1684238;84;20980;-60
2021/12/08 07:46:46;;;;;;;21.03;15.63;;;;;;;14.01;100.00;99672.23;1648479;86;21212;-62
2021/12/08 07:49:17;;;;;;;20.23;16.53;;;;;;;14.05;100.00;99666.84;1626544;87;21303;-74
2021/12/08 07:52:05;;;;;;;15.27;12.33;;;;;;;13.97;100.00;99660.59;1681408;83;21320;-61
2021/12/08 07:54:33;;;;;;;16.73;12.37;;;;;;;13.54;100.00;99658.84;1647895;86;21196;-67
2021/12/08 07:57:06;;;;;;;15.20;12.80;;;;;;;12.85;100.00;99659.30;1646117;86;21157;-69
2021/12/08 07:59:36;;;;;;;16.77;14.60;;;;;;;12.79;100.00;99654.39;1627384;88;22585;-61
2021/12/08 08:02:07;;;;;;;23.37;16.00;;;;;;;12.62;100.00;99653.32;1617793;88;21335;-62
2021/12/08 08:04:38;;;;;;;23.47;17.17;;;;;;;12.49;100.00;99656.00;1671114;85;21191;-71
2021/12/08 08:07:05;;;;;;;25.60;18.83;;;;;;;12.59;100.00;99670.73;1665119;85;21157;-78
2021/12/08 08:09:39;;;;;;;25.83;18.97;;;;;;;12.59;100.00;99666.81;1676681;84;21143;-61
2021/12/08 08:12:10;;;;;;;25.10;19.70;;;;;;;12.93;100.00;99666.09;1666411;85;20976;-63
2021/12/08 08:14:43;;;;;;;27.83;21.47;;;;;;;12.81;100.00;99668.08;1647137;86;21205;-72
2021/12/08 08:17:13;;;;;;;25.88;18.37;;;;;;;12.52;100.00;99663.43;1627512;88;21170;-62
2021/12/08 08:19:44;;;;;;;18.40;14.57;;;;;;;12.78;100.00;99665.87;1628058;87;21020;-64
2021/12/08 08:22:13;;;;;;;21.83;15.57;;;;;;;12.72;100.00;99668.02;1644665;85;21660;-66
2021/12/08 08:24:40;;;;;;;21.12;16.00;;;;;;;12.44;100.00;99666.29;1626633;86;21091;-79
2021/12/08 08:27:09;;;;;;;19.73;16.20;;;;;;;12.37;100.00;99662.40;1678971;84;21083;-61
2021/12/08 08:29:36;;;;;;;25.13;17.03;;;;;;;12.40;100.00;99659.38;1649609;86;21829;-61
2021/12/08 08:32:19;;;;;;;23.27;16.80;;;;;;;12.36;100.00;99653.77;1636810;86;21329;-62
2021/12/08 08:34:45;;;;;;;18.80;15.10;;;;;;;12.47;100.00;99659.34;1626067;88;21288;-63
2021/12/08 08:37:13;;;;;;;25.77;18.10;;;;;;;12.39;100.00;99666.41;1679362;85;21619;-65
2021/12/08 08:39:45;;;;;;;26.60;21.33;;;;;;;12.18;100.00;99672.73;1647266;86;21725;-67
2021/12/08 08:42:17;;;;;;;31.80;20.50;;;;;;;12.22;100.00;99665.28;1625023;87;22010;-62
2021/12/08 08:44:53;;;;;;;21.10;16.87;;;;;;;12.34;100.00;99661.50;1677417;85;21306;-64
2021/12/08 08:47:25;;;;;;;24.73;19.97;;;;;;;12.35;100.00;99654.78;1680324;84;32897;-62
2021/12/08 08:49:52;;;;;;;29.33;20.47;;;;;;;12.58;100.00;99654.76;1647298;86;21027;-64
2021/12/08 08:52:34;;;;;;;34.90;19.83;;;;;;;12.72;100.00;99652.84;1627566;88;21087;-63
2021/12/08 08:55:06;;;;;;;24.52;19.00;;;;;;;12.82;100.00;99650.56;1646492;86;22855;-62
2021/12/08 08:57:36;;;;;;;29.93;21.50;;;;;;;12.87;100.00;99648.90;1627551;88;21004;-61
2021/12/08 09:00:30;;;;;;;22.27;19.00;;;;;;;12.63;100.00;99631.38;1668822;84;21791;-62
2021/12/08 09:02:55;;;;;;;27.33;20.93;;;;;;;12.54;100.00;99624.79;1677468;85;21356;-63
2021/12/08 09:05:31;;;;;;;27.07;20.77;;;;;;;12.65;100.00;99634.57;1644603;87;21149;-64
2021/12/08 09:07:59;;;;;;;31.03;22.00;;;;;;;12.93;100.00;99639.93;1665891;85;21234;-76
2021/12/08 09:10:34;;;;;;;24.27;18.70;;;;;;;12.95;100.00;99612.52;1644217;87;21335;-64
2021/12/08 09:13:06;;;;;;;26.77;20.63;;;;;;;12.32;100.00;99619.91;1667233;85;21915;-64
2021/12/08 09:15:38;;;;;;;25.80;18.33;;;;;;;12.62;100.00;99610.18;1644735;87;21214;-68
2021/12/08 09:18:20;;;;;;;;;;;;;;;12.66;100.00;99600.89;1648255;85;21827;-65
2021/12/08 09:21:13;;;;;;;30.62;19.65;;;;;;;12.75;100.00;99597.50;1658698;85;21724;-64
2021/12/08 09:23:45;;;;;;;25.50;20.23;;;;;;;12.83;100.00;99598.03;1665741;85;21380;-63
2021/12/08 09:26:14;;;;;;;28.33;19.90;;;;;;;12.45;100.00;99588.96;1646675;85;21809;-66
2021/12/08 09:28:49;;;;;;;23.53;17.97;;;;;;;12.45;100.00;99586.34;1655604;85;21203;-67
2021/12/08 09:31:28;;;;;;;22.67;17.20;;;;;;;12.47;100.00;99588.77;1660693;85;21820;-70
2021/12/08 09:34:08;;;;;;;27.27;19.83;;;;;;;12.74;100.00;99578.91;1630066;87;21819;-65
2021/12/08 09:36:45;;;;;;;25.45;18.50;;;;;;;12.83;100.00;99586.27;1636076;87;21262;-64
2021/12/08 09:39:21;;;;;;;26.33;17.90;;;;;;;12.73;100.00;99574.20;1653647;85;21162;-67
2021/12/08 09:41:57;;;;;;;21.03;15.93;;;;;;;12.70;100.00;99580.36;1662351;85;21207;-65
2021/12/08 09:44:29;;;;;;;20.93;17.83;;;;;;;12.63;100.00;99563.41;1641521;87;21719;-64
2021/12/08 09:46:57;;;;;;;21.33;16.90;;;;;;;12.62;100.00;99568.34;1657022;85;21320;-64
2021/12/08 09:49:25;;;;;;;25.13;16.43;;;;;;;12.75;100.00;99567.43;1643376;87;21788;-63
2021/12/08 09:51:54;;;;;;;22.47;16.57;;;;;;;12.70;100.00;99566.77;1666385;85;21414;-67
2021/12/08 09:54:21;;;;;;;23.13;17.37;;;;;;;12.78;100.00;99570.93;1644243;87;21794;-68
2021/12/08 09:56:50;;;;;;;27.43;19.00;;;;;;;12.75;100.00;99563.00;1666903;85;21424;-67
2021/12/08 09:59:17;;;;;;;22.60;17.60;;;;;;;12.65;100.00;99562.66;1648034;85;22331;-64
2021/12/08 10:01:44;;;;;;;25.63;18.37;;;;;;;12.74;100.00;99550.94;1648326;85;21255;-72
2021/12/08 10:04:13;;;;;;;19.60;16.03;;;;;;;12.82;100.00;99555.10;1651798;85;21266;-64
2021/12/08 10:06:48;;;;;;;26.73;18.13;;;;;;;13.08;100.00;99559.30;1630159;86;21056;-63
2021/12/08 10:09:12;;;;;;;20.20;14.33;;;;;;;13.17;100.00;99554.57;1689129;83;21336;-67
2021/12/08 10:11:40;;;;;;;19.30;13.70;;;;;;;13.08;100.00;99557.98;1686610;84;21525;-65
2021/12/08 10:14:07;;;;;;;16.87;12.87;;;;;;;13.09;100.00;99550.42;1662115;83;21172;-65
2021/12/08 10:16:34;;;;;;;20.87;16.13;;;;;;;13.08;100.00;99546.21;1686794;83;21359;-66
2021/12/08 10:19:02;;;;;;;16.77;13.67;;;;;;;12.89;100.00;99550.61;1685233;84;21207;-73
2021/12/08 10:21:38;;;;;;;16.50;12.83;;;;;;;12.79;100.00;99553.70;1661926;85;22556;-64
2021/12/08 10:24:18;;;;;;;16.97;15.17;;;;;;;12.77;100.00;99555.75;1640797;86;21339;-64
2021/12/08 10:26:46;;;;;;;17.33;12.90;;;;;;;12.83;100.00;99553.56;1613373;87;21335;-69
2021/12/08 10:29:13;;;;;;;13.50;10.03;;;;;;;13.01;100.00;99543.66;1646639;85;21367;-68
2021/12/08 10:31:48;;;;;;;11.63;8.63;;;;;;;13.14;100.00;99542.23;1650910;86;21720;-69
2021/12/08 10:36:59;;;;;;;12.37;9.13;;;;;;;13.10;100.00;99538.93;1684774;83;21197;-64
2021/12/08 10:39:36;;;;;;;12.27;9.07;;;;;;;13.05;100.00;99534.86;1686129;83;21140;-64
2021/12/08 10:42:24;;;;;;;11.77;9.93;;;;;;;13.15;100.00;99541.72;1688105;83;21867;-66
2021/12/08 10:45:10;;;;;;;12.10;8.17;;;;;;;13.25;100.00;99541.22;1690192;83;21833;-64
2021/12/08 10:47:54;;;;;;;9.50;6.63;;;;;;;13.38;100.00;99548.44;1688251;83;21787;-64
2021/12/08 10:56:08;;;;;;;11.60;9.43;;;;;;;13.59;100.00;99545.07;1687860;83;21374;-65
2021/12/08 10:58:39;;;;;;;12.73;11.48;;;;;;;13.73;100.00;99539.97;1688774;83;21357;-71
2021/12/08 11:01:12;;;;;;;11.88;8.78;;;;;;;13.53;100.00;99555.92;1694168;83;21062;-68
2021/12/08 11:03:39;;;;;;;8.90;7.73;;;;;;;13.52;100.00;99553.51;1691237;83;21141;-66
2021/12/08 11:06:06;;;;;;;11.53;10.00;;;;;;;13.59;100.00;99549.00;1633319;87;21138;-66
2021/12/08 11:08:41;;;;;;;11.63;10.37;;;;;;;13.93;100.00;99544.14;1661616;85;21391;-66
2021/12/08 11:11:25;;;;;;;12.00;10.10;;;;;;;14.08;100.00;99537.98;1654218;85;21895;-71
2021/12/08 11:14:04;;;;;;;11.03;8.37;;;;;;;13.80;100.00;99541.20;1663009;85;21408;-64
2021/12/08 11:16:34;;;;;;;10.43;8.83;;;;;;;13.80;100.00;99541.20;1630479;87;21395;-65
2021/12/08 11:19:10;;;;;;;11.65;9.00;;;;;;;14.08;100.00;99530.13;1652220;85;21330;-70
2021/12/08 11:21:47;;;;;;;12.57;8.13;;;;;;;14.24;100.00;99522.13;1644614;87;21503;-67
2021/12/08 11:24:30;;;;;;;10.63;9.30;;;;;;;14.38;100.00;99514.35;1664954;85;21092;-67
2021/12/08 11:26:50;;;;;;;11.63;10.27;;;;;;;14.44;100.00;99506.11;1661764;85;21808;-71
2021/12/08 11:29:21;;;;;;;8.73;7.83;;;;;;;14.48;100.00;99508.56;1666904;85;21886;-66
2021/12/08 11:32:00;;;;;;;10.08;8.95;;;;;;;14.12;100.00;99512.41;1644860;87;21192;-65
2021/12/08 11:34:35;;;;;;;12.33;10.10;;;;;;;13.90;100.00;99507.91;1667117;85;21529;-70
2021/12/08 11:37:13;;;;;;;13.23;10.47;;;;;;;14.26;100.00;99506.47;1666941;85;21593;-66
2021/12/08 11:39:43;;;;;;;10.37;7.73;;;;;;;14.47;100.00;99495.14;1650197;85;21292;-65
2021/12/08 11:42:16;;;;;;;10.03;8.97;;;;;;;14.23;100.00;99496.43;1660809;85;21269;-67
2021/12/08 11:44:47;;;;;;;13.23;10.80;;;;;;;14.17;100.00;99495.21;1663292;85;21392;-66
2021/12/08 11:47:17;;;;;;;9.58;8.33;;;;;;;14.15;100.00;99494.14;1662426;85;21451;-64
2021/12/08 11:49:48;;;;;;;11.90;9.13;;;;;;;14.09;100.00;99486.67;1636508;87;21492;-62
2021/12/08 11:52:19;;;;;;;11.57;10.00;;;;;;;14.21;100.00;99484.08;1666261;84;21038;-64
2021/12/08 11:54:56;;;;;;;10.60;9.23;;;;;;;13.89;100.00;99486.15;1657173;85;21575;-64
2021/12/08 11:57:24;;;;;;;10.97;8.00;;;;;;;13.87;100.00;99485.07;1657280;85;21108;-63
2021/12/08 12:00:03;;;;;;;9.27;7.47;;;;;;;13.73;100.00;99481.03;1643767;87;21329;-64
2021/12/08 12:02:56;;;;;;;13.10;9.83;;;;;;;13.69;100.00;99483.81;1626512;85;21422;-62
2021/12/08 12:05:29;;;;;;;10.18;8.75;;;;;;;13.69;100.00;99486.42;1657904;85;21281;-64
2021/12/08 12:07:56;;;;;;;9.30;8.10;;;;;;;13.73;100.00;99484.96;1661904;86;21829;-73
2021/12/08 12:10:27;;;;;;;13.13;8.00;;;;;;;13.63;100.00;99501.70;1663344;86;21404;-64
2021/12/08 12:12:54;;;;;;;9.03;7.40;;;;;;;13.59;100.00;99488.77;1665380;86;21415;-72